sensor_id;sensor_type;location;lat;lon;timestamp;P1;durP1;ratioP1;P2;durP2;ratioP2
56195;SDS011;42108;49.076;19.294;2022-07-10T00:00:55;3.10;;;1.83;;
56195;SDS011;42108;49.076;19.294;2022-07-10T00:02:56;2.80;;;1.70;;
56195;SDS011;42108;49.076;19.294;2022-07-10T00:04:58;4.47;;;1.55;;
56195;SDS011;42108;49.076;19.294;2022-07-10T00:06:59;3.33;;;1.70;;
56195;SDS011;42108;49.076;19.294;2022-07-10T00:09:02;2.35;;;1.30;;
56195;SDS011;42108;49.076;19.294;2022-07-10T00:11:04;6.47;;;1.20;;
56195;SDS011;42108;49.076;19.294;2022-07-10T00:13:05;3.65;;;1.67;;
56195;SDS011;42108;49.076;19.294;2022-07-10T00:15:06;3.13;;;1.40;;
56195;SDS011;42108;49.076;19.294;2022-07-10T00:17:08;4.25;;;1.38;;
56195;SDS011;42108;49.076;19.294;2022-07-10T00:19:09;2.70;;;1.55;;
56195;SDS011;42108;49.076;19.294;2022-07-10T00:21:10;3.95;;;1.42;;
56195;SDS011;42108;49.076;19.294;2022-07-10T00:23:11;2.58;;;1.75;;
56195;SDS011;42108;49.076;19.294;2022-07-10T00:25:13;2.78;;;1.52;;
56195;SDS011;42108;49.076;19.294;2022-07-10T00:27:14;3.28;;;1.70;;
56195;SDS011;42108;49.076;19.294;2022-07-10T00:29:15;5.28;;;1.48;;
56195;SDS011;42108;49.076;19.294;2022-07-10T00:31:16;2.03;;;1.33;;
56195;SDS011;42108;49.076;19.294;2022-07-10T00:33:17;2.60;;;1.60;;
56195;SDS011;42108;49.076;19.294;2022-07-10T00:35:18;3.63;;;1.75;;
56195;SDS011;42108;49.076;19.294;2022-07-10T00:37:19;4.50;;;1.63;;
56195;SDS011;42108;49.076;19.294;2022-07-10T00:39:23;2.20;;;1.48;;
56195;SDS011;42108;49.076;19.294;2022-07-10T00:41:24;3.10;;;1.85;;
56195;SDS011;42108;49.076;19.294;2022-07-10T00:43:25;1.70;;;1.08;;
56195;SDS011;42108;49.076;19.294;2022-07-10T00:45:26;5.22;;;1.80;;
56195;SDS011;42108;49.076;19.294;2022-07-10T00:47:27;2.17;;;1.40;;
56195;SDS011;42108;49.076;19.294;2022-07-10T00:49:29;4.40;;;1.73;;
56195;SDS011;42108;49.076;19.294;2022-07-10T00:51:30;2.85;;;1.73;;
56195;SDS011;42108;49.076;19.294;2022-07-10T00:53:31;5.60;;;1.83;;
56195;SDS011;42108;49.076;19.294;2022-07-10T00:55:32;3.22;;;1.73;;
56195;SDS011;42108;49.076;19.294;2022-07-10T00:57:36;3.60;;;2.00;;
56195;SDS011;42108;49.076;19.294;2022-07-10T00:59:38;2.85;;;1.83;;
56195;SDS011;42108;49.076;19.294;2022-07-10T01:01:39;3.55;;;2.20;;
56195;SDS011;42108;49.076;19.294;2022-07-10T01:03:40;3.08;;;1.90;;
56195;SDS011;42108;49.076;19.294;2022-07-10T01:05:41;4.25;;;1.95;;
56195;SDS011;42108;49.076;19.294;2022-07-10T01:07:42;4.60;;;2.35;;
56195;SDS011;42108;49.076;19.294;2022-07-10T01:09:43;3.55;;;2.55;;
56195;SDS011;42108;49.076;19.294;2022-07-10T01:11:45;3.33;;;2.20;;
56195;SDS011;42108;49.076;19.294;2022-07-10T01:13:46;2.92;;;2.30;;
56195;SDS011;42108;49.076;19.294;2022-07-10T01:15:47;4.45;;;1.98;;
56195;SDS011;42108;49.076;19.294;2022-07-10T01:17:48;3.47;;;2.35;;
56195;SDS011;42108;49.076;19.294;2022-07-10T01:19:50;3.40;;;2.47;;
56195;SDS011;42108;49.076;19.294;2022-07-10T01:21:51;4.15;;;3.05;;
56195;SDS011;42108;49.076;19.294;2022-07-10T01:23:52;4.50;;;3.28;;
56195;SDS011;42108;49.076;19.294;2022-07-10T01:25:54;4.78;;;3.15;;
56195;SDS011;42108;49.076;19.294;2022-07-10T01:27:55;4.50;;;3.25;;
56195;SDS011;42108;49.076;19.294;2022-07-10T01:29:56;4.45;;;3.22;;
56195;SDS011;42108;49.076;19.294;2022-07-10T01:31:58;5.75;;;3.42;;
56195;SDS011;42108;49.076;19.294;2022-07-10T01:34:02;8.30;;;3.38;;
56195;SDS011;42108;49.076;19.294;2022-07-10T01:36:05;5.13;;;2.83;;
56195;SDS011;42108;49.076;19.294;2022-07-10T01:38:08;4.15;;;3.20;;
56195;SDS011;42108;49.076;19.294;2022-07-10T01:40:09;6.40;;;3.28;;
56195;SDS011;42108;49.076;19.294;2022-07-10T01:42:10;4.90;;;2.88;;
56195;SDS011;42108;49.076;19.294;2022-07-10T01:44:11;4.35;;;2.90;;
56195;SDS011;42108;49.076;19.294;2022-07-10T01:46:12;3.67;;;2.60;;
56195;SDS011;42108;49.076;19.294;2022-07-10T01:48:13;5.03;;;2.92;;
56195;SDS011;42108;49.076;19.294;2022-07-10T01:50:14;5.70;;;2.58;;
56195;SDS011;42108;49.076;19.294;2022-07-10T01:52:15;5.47;;;2.72;;
56195;SDS011;42108;49.076;19.294;2022-07-10T01:54:16;5.80;;;2.45;;
56195;SDS011;42108;49.076;19.294;2022-07-10T01:56:17;5.32;;;2.60;;
56195;SDS011;42108;49.076;19.294;2022-07-10T01:58:18;6.45;;;2.70;;
56195;SDS011;42108;49.076;19.294;2022-07-10T02:00:19;3.00;;;2.35;;
56195;SDS011;42108;49.076;19.294;2022-07-10T02:02:20;4.40;;;2.33;;
56195;SDS011;42108;49.076;19.294;2022-07-10T02:04:22;5.97;;;2.80;;
56195;SDS011;42108;49.076;19.294;2022-07-10T02:06:42;4.18;;;2.53;;
56195;SDS011;42108;49.076;19.294;2022-07-10T02:08:43;4.15;;;2.80;;
56195;SDS011;42108;49.076;19.294;2022-07-10T02:10:45;4.30;;;2.33;;
56195;SDS011;42108;49.076;19.294;2022-07-10T02:12:46;4.15;;;2.63;;
56195;SDS011;42108;49.076;19.294;2022-07-10T02:14:48;4.07;;;3.05;;
56195;SDS011;42108;49.076;19.294;2022-07-10T02:16:49;4.53;;;2.92;;
56195;SDS011;42108;49.076;19.294;2022-07-10T02:18:50;5.68;;;2.90;;
56195;SDS011;42108;49.076;19.294;2022-07-10T02:20:51;8.68;;;4.57;;
56195;SDS011;42108;49.076;19.294;2022-07-10T02:22:52;5.85;;;3.70;;
56195;SDS011;42108;49.076;19.294;2022-07-10T02:24:53;4.78;;;3.15;;
56195;SDS011;42108;49.076;19.294;2022-07-10T02:26:54;5.00;;;3.17;;
56195;SDS011;42108;49.076;19.294;2022-07-10T02:28:56;4.00;;;2.78;;
56195;SDS011;42108;49.076;19.294;2022-07-10T02:30:57;7.88;;;2.88;;
56195;SDS011;42108;49.076;19.294;2022-07-10T02:32:58;4.82;;;3.08;;
56195;SDS011;42108;49.076;19.294;2022-07-10T02:34:59;4.32;;;3.03;;
56195;SDS011;42108;49.076;19.294;2022-07-10T02:37:00;10.23;;;3.03;;
56195;SDS011;42108;49.076;19.294;2022-07-10T02:39:02;7.85;;;3.20;;
56195;SDS011;42108;49.076;19.294;2022-07-10T02:41:03;7.13;;;3.17;;
56195;SDS011;42108;49.076;19.294;2022-07-10T02:43:05;4.60;;;2.95;;
56195;SDS011;42108;49.076;19.294;2022-07-10T02:45:06;6.80;;;2.70;;
56195;SDS011;42108;49.076;19.294;2022-07-10T02:47:09;5.10;;;2.80;;
56195;SDS011;42108;49.076;19.294;2022-07-10T02:49:10;3.83;;;3.03;;
56195;SDS011;42108;49.076;19.294;2022-07-10T02:51:11;6.60;;;3.70;;
56195;SDS011;42108;49.076;19.294;2022-07-10T02:53:12;5.93;;;3.15;;
56195;SDS011;42108;49.076;19.294;2022-07-10T02:55:13;3.13;;;2.25;;
56195;SDS011;42108;49.076;19.294;2022-07-10T02:57:14;5.15;;;3.08;;
56195;SDS011;42108;49.076;19.294;2022-07-10T02:59:15;3.92;;;2.50;;
56195;SDS011;42108;49.076;19.294;2022-07-10T03:01:17;4.70;;;2.65;;
56195;SDS011;42108;49.076;19.294;2022-07-10T03:03:18;5.18;;;3.10;;
56195;SDS011;42108;49.076;19.294;2022-07-10T03:05:20;4.10;;;2.60;;
56195;SDS011;42108;49.076;19.294;2022-07-10T03:07:21;4.30;;;3.10;;
56195;SDS011;42108;49.076;19.294;2022-07-10T03:09:22;4.15;;;2.72;;
56195;SDS011;42108;49.076;19.294;2022-07-10T03:11:23;5.32;;;3.22;;
56195;SDS011;42108;49.076;19.294;2022-07-10T03:13:24;5.18;;;3.05;;
56195;SDS011;42108;49.076;19.294;2022-07-10T03:15:25;4.63;;;3.38;;
56195;SDS011;42108;49.076;19.294;2022-07-10T03:17:26;6.07;;;2.72;;
56195;SDS011;42108;49.076;19.294;2022-07-10T03:19:27;5.65;;;3.00;;
56195;SDS011;42108;49.076;19.294;2022-07-10T03:21:28;5.22;;;2.65;;
56195;SDS011;42108;49.076;19.294;2022-07-10T03:23:31;8.73;;;2.85;;
56195;SDS011;42108;49.076;19.294;2022-07-10T03:25:32;4.18;;;3.08;;
56195;SDS011;42108;49.076;19.294;2022-07-10T03:27:34;3.15;;;2.28;;
56195;SDS011;42108;49.076;19.294;2022-07-10T03:29:35;4.68;;;3.08;;
56195;SDS011;42108;49.076;19.294;2022-07-10T03:31:36;5.60;;;2.78;;
56195;SDS011;42108;49.076;19.294;2022-07-10T03:33:37;3.83;;;2.78;;
56195;SDS011;42108;49.076;19.294;2022-07-10T03:35:39;5.25;;;3.78;;
56195;SDS011;42108;49.076;19.294;2022-07-10T03:37:40;5.57;;;2.95;;
56195;SDS011;42108;49.076;19.294;2022-07-10T03:39:41;3.55;;;2.72;;
56195;SDS011;42108;49.076;19.294;2022-07-10T03:41:42;4.60;;;2.78;;
56195;SDS011;42108;49.076;19.294;2022-07-10T03:43:43;4.55;;;3.08;;
56195;SDS011;42108;49.076;19.294;2022-07-10T03:45:44;5.57;;;2.92;;
56195;SDS011;42108;49.076;19.294;2022-07-10T03:47:45;4.07;;;3.15;;
56195;SDS011;42108;49.076;19.294;2022-07-10T03:49:46;4.88;;;3.25;;
56195;SDS011;42108;49.076;19.294;2022-07-10T03:51:47;5.40;;;3.15;;
56195;SDS011;42108;49.076;19.294;2022-07-10T03:53:49;4.22;;;3.05;;
56195;SDS011;42108;49.076;19.294;2022-07-10T03:55:50;4.65;;;3.45;;
56195;SDS011;42108;49.076;19.294;2022-07-10T03:57:51;3.97;;;3.03;;
56195;SDS011;42108;49.076;19.294;2022-07-10T03:59:54;3.83;;;2.85;;
56195;SDS011;42108;49.076;19.294;2022-07-10T04:01:56;5.13;;;3.40;;
56195;SDS011;42108;49.076;19.294;2022-07-10T04:03:57;5.97;;;2.90;;
56195;SDS011;42108;49.076;19.294;2022-07-10T04:05:58;6.75;;;2.95;;
56195;SDS011;42108;49.076;19.294;2022-07-10T04:07:59;6.05;;;2.85;;
56195;SDS011;42108;49.076;19.294;2022-07-10T04:10:02;4.60;;;3.17;;
56195;SDS011;42108;49.076;19.294;2022-07-10T04:12:04;6.57;;;3.42;;
56195;SDS011;42108;49.076;19.294;2022-07-10T04:14:05;4.18;;;2.75;;
56195;SDS011;42108;49.076;19.294;2022-07-10T04:16:06;4.07;;;2.85;;
56195;SDS011;42108;49.076;19.294;2022-07-10T04:18:10;7.32;;;3.10;;
56195;SDS011;42108;49.076;19.294;2022-07-10T04:20:11;3.75;;;2.63;;
56195;SDS011;42108;49.076;19.294;2022-07-10T04:22:12;5.78;;;2.85;;
56195;SDS011;42108;49.076;19.294;2022-07-10T04:24:14;4.25;;;2.60;;
56195;SDS011;42108;49.076;19.294;2022-07-10T04:26:15;4.03;;;2.30;;
56195;SDS011;42108;49.076;19.294;2022-07-10T04:28:16;4.50;;;2.78;;
56195;SDS011;42108;49.076;19.294;2022-07-10T04:30:17;3.40;;;2.50;;
56195;SDS011;42108;49.076;19.294;2022-07-10T04:32:18;3.58;;;2.45;;
56195;SDS011;42108;49.076;19.294;2022-07-10T04:34:19;4.25;;;2.72;;
56195;SDS011;42108;49.076;19.294;2022-07-10T04:36:20;4.28;;;2.58;;
56195;SDS011;42108;49.076;19.294;2022-07-10T04:38:22;3.90;;;2.70;;
56195;SDS011;42108;49.076;19.294;2022-07-10T04:40:23;5.95;;;2.97;;
56195;SDS011;42108;49.076;19.294;2022-07-10T04:42:24;6.85;;;2.80;;
56195;SDS011;42108;49.076;19.294;2022-07-10T04:44:25;3.50;;;2.50;;
56195;SDS011;42108;49.076;19.294;2022-07-10T04:46:26;5.07;;;3.00;;
56195;SDS011;42108;49.076;19.294;2022-07-10T04:48:27;4.03;;;2.50;;
56195;SDS011;42108;49.076;19.294;2022-07-10T04:50:28;3.42;;;2.30;;
56195;SDS011;42108;49.076;19.294;2022-07-10T04:52:29;6.35;;;3.35;;
56195;SDS011;42108;49.076;19.294;2022-07-10T04:54:30;6.03;;;3.47;;
56195;SDS011;42108;49.076;19.294;2022-07-10T04:56:31;4.95;;;2.53;;
56195;SDS011;42108;49.076;19.294;2022-07-10T04:58:32;3.83;;;2.78;;
56195;SDS011;42108;49.076;19.294;2022-07-10T05:00:33;4.18;;;2.85;;
56195;SDS011;42108;49.076;19.294;2022-07-10T05:02:34;3.42;;;2.33;;
56195;SDS011;42108;49.076;19.294;2022-07-10T05:04:35;5.25;;;3.33;;
56195;SDS011;42108;49.076;19.294;2022-07-10T05:06:36;4.15;;;2.63;;
56195;SDS011;42108;49.076;19.294;2022-07-10T05:08:37;4.65;;;3.22;;
56195;SDS011;42108;49.076;19.294;2022-07-10T05:10:38;4.45;;;3.10;;
56195;SDS011;42108;49.076;19.294;2022-07-10T05:12:40;3.60;;;2.47;;
56195;SDS011;42108;49.076;19.294;2022-07-10T05:14:41;5.43;;;3.35;;
56195;SDS011;42108;49.076;19.294;2022-07-10T05:16:42;3.75;;;3.03;;
56195;SDS011;42108;49.076;19.294;2022-07-10T05:18:43;6.05;;;3.72;;
56195;SDS011;42108;49.076;19.294;2022-07-10T05:20:45;5.00;;;3.25;;
56195;SDS011;42108;49.076;19.294;2022-07-10T05:22:48;5.30;;;2.85;;
56195;SDS011;42108;49.076;19.294;2022-07-10T05:24:49;5.35;;;3.20;;
56195;SDS011;42108;49.076;19.294;2022-07-10T05:26:50;4.32;;;3.17;;
56195;SDS011;42108;49.076;19.294;2022-07-10T05:28:51;3.80;;;2.60;;
56195;SDS011;42108;49.076;19.294;2022-07-10T05:30:52;4.18;;;2.85;;
56195;SDS011;42108;49.076;19.294;2022-07-10T05:32:53;4.18;;;3.03;;
56195;SDS011;42108;49.076;19.294;2022-07-10T05:34:56;5.13;;;3.35;;
56195;SDS011;42108;49.076;19.294;2022-07-10T05:36:58;8.15;;;3.20;;
56195;SDS011;42108;49.076;19.294;2022-07-10T05:39:00;5.78;;;3.25;;
56195;SDS011;42108;49.076;19.294;2022-07-10T05:41:01;5.13;;;2.67;;
56195;SDS011;42108;49.076;19.294;2022-07-10T05:43:02;7.40;;;3.17;;
56195;SDS011;42108;49.076;19.294;2022-07-10T05:45:04;3.95;;;3.05;;
56195;SDS011;42108;49.076;19.294;2022-07-10T05:47:06;4.25;;;3.28;;
56195;SDS011;42108;49.076;19.294;2022-07-10T05:49:07;6.18;;;3.45;;
56195;SDS011;42108;49.076;19.294;2022-07-10T05:51:08;5.30;;;3.08;;
56195;SDS011;42108;49.076;19.294;2022-07-10T05:53:10;4.40;;;3.25;;
56195;SDS011;42108;49.076;19.294;2022-07-10T05:55:11;4.15;;;3.00;;
56195;SDS011;42108;49.076;19.294;2022-07-10T05:57:12;4.63;;;2.55;;
56195;SDS011;42108;49.076;19.294;2022-07-10T05:59:13;3.75;;;2.45;;
56195;SDS011;42108;49.076;19.294;2022-07-10T06:01:14;4.60;;;3.22;;
56195;SDS011;42108;49.076;19.294;2022-07-10T06:03:15;4.07;;;2.58;;
56195;SDS011;42108;49.076;19.294;2022-07-10T06:05:17;3.92;;;2.25;;
56195;SDS011;42108;49.076;19.294;2022-07-10T06:07:18;4.43;;;2.53;;
56195;SDS011;42108;49.076;19.294;2022-07-10T06:09:19;5.35;;;2.92;;
56195;SDS011;42108;49.076;19.294;2022-07-10T06:11:20;3.30;;;2.50;;
56195;SDS011;42108;49.076;19.294;2022-07-10T06:13:21;3.30;;;2.70;;
56195;SDS011;42108;49.076;19.294;2022-07-10T06:15:22;6.90;;;2.95;;
56195;SDS011;42108;49.076;19.294;2022-07-10T06:17:23;3.35;;;2.58;;
56195;SDS011;42108;49.076;19.294;2022-07-10T06:19:24;4.28;;;2.97;;
56195;SDS011;42108;49.076;19.294;2022-07-10T06:21:25;3.40;;;2.47;;
56195;SDS011;42108;49.076;19.294;2022-07-10T06:23:26;3.80;;;2.60;;
56195;SDS011;42108;49.076;19.294;2022-07-10T06:25:27;4.38;;;2.33;;
56195;SDS011;42108;49.076;19.294;2022-07-10T06:27:30;3.70;;;2.58;;
56195;SDS011;42108;49.076;19.294;2022-07-10T06:29:32;6.10;;;3.53;;
56195;SDS011;42108;49.076;19.294;2022-07-10T06:31:33;4.28;;;2.50;;
56195;SDS011;42108;49.076;19.294;2022-07-10T06:33:34;3.60;;;2.28;;
56195;SDS011;42108;49.076;19.294;2022-07-10T06:35:36;4.78;;;2.28;;
56195;SDS011;42108;49.076;19.294;2022-07-10T06:37:37;5.25;;;2.40;;
56195;SDS011;42108;49.076;19.294;2022-07-10T06:39:38;3.00;;;2.10;;
56195;SDS011;42108;49.076;19.294;2022-07-10T06:41:39;4.32;;;2.22;;
56195;SDS011;42108;49.076;19.294;2022-07-10T06:43:40;4.80;;;2.20;;
56195;SDS011;42108;49.076;19.294;2022-07-10T06:45:41;3.03;;;2.10;;
56195;SDS011;42108;49.076;19.294;2022-07-10T06:47:42;4.93;;;2.50;;
56195;SDS011;42108;49.076;19.294;2022-07-10T06:50:02;5.03;;;1.70;;
56195;SDS011;42108;49.076;19.294;2022-07-10T06:52:05;3.10;;;2.15;;
56195;SDS011;42108;49.076;19.294;2022-07-10T06:54:07;3.95;;;2.70;;
56195;SDS011;42108;49.076;19.294;2022-07-10T06:56:08;6.10;;;2.45;;
56195;SDS011;42108;49.076;19.294;2022-07-10T06:58:09;3.55;;;1.83;;
56195;SDS011;42108;49.076;19.294;2022-07-10T07:00:10;5.32;;;2.30;;
56195;SDS011;42108;49.076;19.294;2022-07-10T07:02:12;4.10;;;2.58;;
56195;SDS011;42108;49.076;19.294;2022-07-10T07:04:13;3.78;;;2.47;;
56195;SDS011;42108;49.076;19.294;2022-07-10T07:06:14;4.38;;;2.42;;
56195;SDS011;42108;49.076;19.294;2022-07-10T07:08:15;4.22;;;2.80;;
56195;SDS011;42108;49.076;19.294;2022-07-10T07:10:17;3.38;;;2.30;;
56195;SDS011;42108;49.076;19.294;2022-07-10T07:12:18;6.10;;;2.95;;
56195;SDS011;42108;49.076;19.294;2022-07-10T07:14:19;2.45;;;2.03;;
56195;SDS011;42108;49.076;19.294;2022-07-10T07:16:20;5.15;;;2.28;;
56195;SDS011;42108;49.076;19.294;2022-07-10T07:18:29;3.70;;;2.00;;
56195;SDS011;42108;49.076;19.294;2022-07-10T07:20:33;4.15;;;2.20;;
56195;SDS011;42108;49.076;19.294;2022-07-10T07:22:54;6.25;;;2.30;;
56195;SDS011;42108;49.076;19.294;2022-07-10T07:25:10;4.38;;;1.90;;
56195;SDS011;42108;49.076;19.294;2022-07-10T07:27:12;3.10;;;1.98;;
56195;SDS011;42108;49.076;19.294;2022-07-10T07:29:14;2.72;;;1.67;;
56195;SDS011;42108;49.076;19.294;2022-07-10T07:31:15;3.45;;;1.80;;
56195;SDS011;42108;49.076;19.294;2022-07-10T07:33:18;6.25;;;2.28;;
56195;SDS011;42108;49.076;19.294;2022-07-10T07:35:19;2.40;;;1.55;;
56195;SDS011;42108;49.076;19.294;2022-07-10T07:37:20;2.38;;;1.70;;
56195;SDS011;42108;49.076;19.294;2022-07-10T07:39:23;2.47;;;1.60;;
56195;SDS011;42108;49.076;19.294;2022-07-10T07:41:26;2.35;;;1.48;;
56195;SDS011;42108;49.076;19.294;2022-07-10T07:43:27;2.92;;;1.90;;
56195;SDS011;42108;49.076;19.294;2022-07-10T07:45:28;3.00;;;2.22;;
56195;SDS011;42108;49.076;19.294;2022-07-10T07:47:29;3.72;;;1.88;;
56195;SDS011;42108;49.076;19.294;2022-07-10T07:49:31;3.53;;;1.50;;
56195;SDS011;42108;49.076;19.294;2022-07-10T07:51:32;2.00;;;1.45;;
56195;SDS011;42108;49.076;19.294;2022-07-10T07:53:34;2.65;;;1.85;;
56195;SDS011;42108;49.076;19.294;2022-07-10T07:55:35;2.47;;;1.73;;
56195;SDS011;42108;49.076;19.294;2022-07-10T07:57:36;3.47;;;1.80;;
56195;SDS011;42108;49.076;19.294;2022-07-10T07:59:38;4.32;;;1.90;;
56195;SDS011;42108;49.076;19.294;2022-07-10T08:01:40;2.10;;;1.60;;
56195;SDS011;42108;49.076;19.294;2022-07-10T08:03:41;1.67;;;0.98;;
56195;SDS011;42108;49.076;19.294;2022-07-10T08:05:42;2.33;;;1.42;;
56195;SDS011;42108;49.076;19.294;2022-07-10T08:07:44;1.50;;;1.10;;
56195;SDS011;42108;49.076;19.294;2022-07-10T08:09:50;2.42;;;1.33;;
56195;SDS011;42108;49.076;19.294;2022-07-10T08:11:52;2.15;;;1.08;;
56195;SDS011;42108;49.076;19.294;2022-07-10T08:13:53;1.95;;;1.13;;
56195;SDS011;42108;49.076;19.294;2022-07-10T08:15:54;5.85;;;1.20;;
56195;SDS011;42108;49.076;19.294;2022-07-10T08:17:56;2.38;;;1.02;;
56195;SDS011;42108;49.076;19.294;2022-07-10T08:19:58;2.38;;;1.58;;
56195;SDS011;42108;49.076;19.294;2022-07-10T08:21:59;2.42;;;1.25;;
56195;SDS011;42108;49.076;19.294;2022-07-10T08:24:00;4.10;;;1.45;;
56195;SDS011;42108;49.076;19.294;2022-07-10T08:26:02;1.17;;;0.82;;
56195;SDS011;42108;49.076;19.294;2022-07-10T08:28:03;2.42;;;1.10;;
56195;SDS011;42108;49.076;19.294;2022-07-10T08:30:06;3.70;;;1.77;;
56195;SDS011;42108;49.076;19.294;2022-07-10T08:32:09;2.50;;;1.77;;
56195;SDS011;42108;49.076;19.294;2022-07-10T08:34:10;5.13;;;1.70;;
56195;SDS011;42108;49.076;19.294;2022-07-10T08:36:11;3.00;;;1.30;;
56195;SDS011;42108;49.076;19.294;2022-07-10T08:38:12;1.50;;;1.10;;
56195;SDS011;42108;49.076;19.294;2022-07-10T08:40:14;1.92;;;1.00;;
56195;SDS011;42108;49.076;19.294;2022-07-10T08:42:16;3.20;;;1.13;;
56195;SDS011;42108;49.076;19.294;2022-07-10T08:44:19;2.90;;;1.25;;
56195;SDS011;42108;49.076;19.294;2022-07-10T08:46:20;1.73;;;1.00;;
56195;SDS011;42108;49.076;19.294;2022-07-10T08:48:22;1.27;;;0.70;;
56195;SDS011;42108;49.076;19.294;2022-07-10T08:50:25;2.35;;;0.88;;
56195;SDS011;42108;49.076;19.294;2022-07-10T08:52:42;2.53;;;0.70;;
56195;SDS011;42108;49.076;19.294;2022-07-10T08:54:45;3.03;;;0.68;;
56195;SDS011;42108;49.076;19.294;2022-07-10T08:56:46;1.55;;;0.80;;
56195;SDS011;42108;49.076;19.294;2022-07-10T08:58:48;1.67;;;0.60;;
56195;SDS011;42108;49.076;19.294;2022-07-10T09:00:52;1.55;;;0.75;;
56195;SDS011;42108;49.076;19.294;2022-07-10T09:02:54;6.22;;;0.60;;
56195;SDS011;42108;49.076;19.294;2022-07-10T09:04:56;4.03;;;0.80;;
56195;SDS011;42108;49.076;19.294;2022-07-10T09:06:57;2.03;;;0.70;;
56195;SDS011;42108;49.076;19.294;2022-07-10T09:11:13;1.00;;;0.50;;
56195;SDS011;42108;49.076;19.294;2022-07-10T09:13:15;2.88;;;0.45;;
56195;SDS011;42108;49.076;19.294;2022-07-10T09:15:17;2.05;;;0.80;;
56195;SDS011;42108;49.076;19.294;2022-07-10T09:17:21;3.45;;;0.88;;
56195;SDS011;42108;49.076;19.294;2022-07-10T09:21:32;2.30;;;0.70;;
56195;SDS011;42108;49.076;19.294;2022-07-10T09:23:33;1.92;;;0.80;;
56195;SDS011;42108;49.076;19.294;2022-07-10T09:25:35;1.45;;;0.75;;
56195;SDS011;42108;49.076;19.294;2022-07-10T09:27:36;3.60;;;1.67;;
56195;SDS011;42108;49.076;19.294;2022-07-10T09:29:54;1.83;;;0.70;;
56195;SDS011;42108;49.076;19.294;2022-07-10T09:31:58;1.27;;;0.47;;
56195;SDS011;42108;49.076;19.294;2022-07-10T09:34:00;3.93;;;0.63;;
56195;SDS011;42108;49.076;19.294;2022-07-10T09:36:09;2.20;;;0.70;;
56195;SDS011;42108;49.076;19.294;2022-07-10T09:38:12;1.30;;;0.60;;
56195;SDS011;42108;49.076;19.294;2022-07-10T09:40:13;3.60;;;0.70;;
56195;SDS011;42108;49.076;19.294;2022-07-10T09:42:35;3.35;;;0.52;;
56195;SDS011;42108;49.076;19.294;2022-07-10T09:44:40;1.40;;;0.60;;
56195;SDS011;42108;49.076;19.294;2022-07-10T09:46:41;1.08;;;0.55;;
56195;SDS011;42108;49.076;19.294;2022-07-10T09:48:42;1.05;;;0.40;;
56195;SDS011;42108;49.076;19.294;2022-07-10T09:50:43;0.95;;;0.63;;
56195;SDS011;42108;49.076;19.294;2022-07-10T09:52:45;2.22;;;0.50;;
56195;SDS011;42108;49.076;19.294;2022-07-10T09:54:47;1.73;;;0.40;;
56195;SDS011;42108;49.076;19.294;2022-07-10T09:56:49;0.88;;;0.40;;
56195;SDS011;42108;49.076;19.294;2022-07-10T09:58:54;1.17;;;0.52;;
56195;SDS011;42108;49.076;19.294;2022-07-10T10:01:00;0.93;;;0.40;;
56195;SDS011;42108;49.076;19.294;2022-07-10T10:03:02;0.85;;;0.30;;
56195;SDS011;42108;49.076;19.294;2022-07-10T10:05:05;0.40;;;0.23;;
56195;SDS011;42108;49.076;19.294;2022-07-10T10:07:09;1.10;;;0.40;;
56195;SDS011;42108;49.076;19.294;2022-07-10T10:11:43;1.70;;;0.30;;
56195;SDS011;42108;49.076;19.294;2022-07-10T10:13:46;0.80;;;0.30;;
56195;SDS011;42108;49.076;19.294;2022-07-10T10:15:50;0.85;;;0.38;;
56195;SDS011;42108;49.076;19.294;2022-07-10T10:17:52;1.02;;;0.60;;
56195;SDS011;42108;49.076;19.294;2022-07-10T10:19:55;1.13;;;0.35;;
56195;SDS011;42108;49.076;19.294;2022-07-10T10:22:16;1.55;;;0.65;;
56195;SDS011;42108;49.076;19.294;2022-07-10T10:24:19;3.05;;;0.70;;
56195;SDS011;42108;49.076;19.294;2022-07-10T10:26:21;3.35;;;0.40;;
56195;SDS011;42108;49.076;19.294;2022-07-10T10:28:24;0.57;;;0.30;;
56195;SDS011;42108;49.076;19.294;2022-07-10T10:30:27;3.13;;;0.32;;
56195;SDS011;42108;49.076;19.294;2022-07-10T10:32:29;0.68;;;0.30;;
56195;SDS011;42108;49.076;19.294;2022-07-10T10:36:43;1.02;;;0.40;;
56195;SDS011;42108;49.076;19.294;2022-07-10T10:40:54;0.90;;;0.30;;
56195;SDS011;42108;49.076;19.294;2022-07-10T10:43:25;3.42;;;0.47;;
56195;SDS011;42108;49.076;19.294;2022-07-10T10:47:38;1.10;;;0.30;;
56195;SDS011;42108;49.076;19.294;2022-07-10T10:50:09;1.35;;;0.28;;
56195;SDS011;42108;49.076;19.294;2022-07-10T10:52:11;0.88;;;0.20;;
56195;SDS011;42108;49.076;19.294;2022-07-10T10:54:16;1.50;;;0.30;;
56195;SDS011;42108;49.076;19.294;2022-07-10T10:58:18;1.13;;;0.28;;
56195;SDS011;42108;49.076;19.294;2022-07-10T11:00:31;1.70;;;0.30;;
56195;SDS011;42108;49.076;19.294;2022-07-10T11:02:38;1.25;;;0.32;;
56195;SDS011;42108;49.076;19.294;2022-07-10T11:04:41;1.17;;;0.30;;
56195;SDS011;42108;49.076;19.294;2022-07-10T11:08:43;1.30;;;0.32;;
56195;SDS011;42108;49.076;19.294;2022-07-10T11:10:47;2.58;;;0.25;;
56195;SDS011;42108;49.076;19.294;2022-07-10T11:13:00;0.17;;;0.10;;
56195;SDS011;42108;49.076;19.294;2022-07-10T11:15:03;0.65;;;0.20;;
56195;SDS011;42108;49.076;19.294;2022-07-10T11:17:09;0.95;;;0.20;;
56195;SDS011;42108;49.076;19.294;2022-07-10T11:19:10;0.60;;;0.20;;
56195;SDS011;42108;49.076;19.294;2022-07-10T11:21:12;1.48;;;0.30;;
56195;SDS011;42108;49.076;19.294;2022-07-10T11:26:08;0.90;;;0.38;;
56195;SDS011;42108;49.076;19.294;2022-07-10T11:28:24;5.78;;;0.40;;
56195;SDS011;42108;49.076;19.294;2022-07-10T11:30:54;1.25;;;0.40;;
56195;SDS011;42108;49.076;19.294;2022-07-10T11:32:55;1.52;;;0.30;;
56195;SDS011;42108;49.076;19.294;2022-07-10T11:35:10;2.38;;;0.63;;
56195;SDS011;42108;49.076;19.294;2022-07-10T11:37:15;1.40;;;0.40;;
56195;SDS011;42108;49.076;19.294;2022-07-10T11:39:16;1.60;;;0.50;;
56195;SDS011;42108;49.076;19.294;2022-07-10T11:41:18;2.38;;;0.40;;
56195;SDS011;42108;49.076;19.294;2022-07-10T11:43:21;1.17;;;0.40;;
56195;SDS011;42108;49.076;19.294;2022-07-10T11:45:28;3.33;;;0.40;;
56195;SDS011;42108;49.076;19.294;2022-07-10T11:47:31;0.85;;;0.40;;
56195;SDS011;42108;49.076;19.294;2022-07-10T11:49:32;3.17;;;0.57;;
56195;SDS011;42108;49.076;19.294;2022-07-10T11:51:36;1.35;;;0.50;;
56195;SDS011;42108;49.076;19.294;2022-07-10T11:53:38;4.13;;;0.60;;
56195;SDS011;42108;49.076;19.294;2022-07-10T11:55:39;2.72;;;0.30;;
56195;SDS011;42108;49.076;19.294;2022-07-10T11:57:41;2.05;;;0.40;;
56195;SDS011;42108;49.076;19.294;2022-07-10T11:59:44;1.75;;;0.50;;
56195;SDS011;42108;49.076;19.294;2022-07-10T12:01:46;1.38;;;0.45;;
56195;SDS011;42108;49.076;19.294;2022-07-10T12:04:02;1.60;;;0.87;;
56195;SDS011;42108;49.076;19.294;2022-07-10T12:06:05;2.45;;;0.30;;
56195;SDS011;42108;49.076;19.294;2022-07-10T12:08:07;0.95;;;0.40;;
56195;SDS011;42108;49.076;19.294;2022-07-10T12:10:09;1.30;;;0.40;;
56195;SDS011;42108;49.076;19.294;2022-07-10T12:12:11;1.88;;;0.50;;
56195;SDS011;42108;49.076;19.294;2022-07-10T12:14:15;1.52;;;0.40;;
56195;SDS011;42108;49.076;19.294;2022-07-10T12:16:20;1.88;;;0.40;;
56195;SDS011;42108;49.076;19.294;2022-07-10T12:18:22;2.30;;;0.50;;
56195;SDS011;42108;49.076;19.294;2022-07-10T12:20:24;1.65;;;0.40;;
56195;SDS011;42108;49.076;19.294;2022-07-10T12:22:26;2.42;;;0.50;;
56195;SDS011;42108;49.076;19.294;2022-07-10T12:24:27;1.40;;;0.40;;
56195;SDS011;42108;49.076;19.294;2022-07-10T12:26:36;1.27;;;0.40;;